sensor_id;sensor_type;location;lat;lon;timestamp;P1;durP1;ratioP1;P2;durP2;ratioP2
76196;SDS011;64974;53.144;17.962;2023-04-25T00:02:09;7.30;;;4.65;;
76196;SDS011;64974;53.144;17.962;2023-04-25T00:04:34;7.22;;;4.72;;
76196;SDS011;64974;53.144;17.962;2023-04-25T00:06:59;7.30;;;4.67;;
76196;SDS011;64974;53.144;17.962;2023-04-25T00:09:27;7.45;;;4.28;;
76196;SDS011;64974;53.144;17.962;2023-04-25T00:11:53;10.35;;;5.00;;
76196;SDS011;64974;53.144;17.962;2023-04-25T00:14:18;6.72;;;4.45;;
76196;SDS011;64974;53.144;17.962;2023-04-25T00:16:43;7.35;;;4.45;;
76196;SDS011;64974;53.144;17.962;2023-04-25T00:19:09;6.70;;;4.65;;
76196;SDS011;64974;53.144;17.962;2023-04-25T00:21:34;7.13;;;4.45;;
76196;SDS011;64974;53.144;17.962;2023-04-25T00:24:00;7.07;;;4.20;;
76196;SDS011;64974;53.144;17.962;2023-04-25T00:26:26;6.43;;;4.50;;
76196;SDS011;64974;53.144;17.962;2023-04-25T00:31:17;5.17;;;3.53;;
76196;SDS011;64974;53.144;17.962;2023-04-25T00:33:42;9.35;;;4.03;;
76196;SDS011;64974;53.144;17.962;2023-04-25T00:36:08;5.95;;;3.65;;
76196;SDS011;64974;53.144;17.962;2023-04-25T00:38:33;5.70;;;3.28;;
76196;SDS011;64974;53.144;17.962;2023-04-25T00:40:59;7.30;;;4.20;;
76196;SDS011;64974;53.144;17.962;2023-04-25T00:43:25;5.80;;;3.10;;
76196;SDS011;64974;53.144;17.962;2023-04-25T00:48:16;5.37;;;3.30;;
76196;SDS011;64974;53.144;17.962;2023-04-25T00:50:43;5.35;;;3.20;;
76196;SDS011;64974;53.144;17.962;2023-04-25T00:53:16;6.05;;;3.45;;
76196;SDS011;64974;53.144;17.962;2023-04-25T00:55:41;6.60;;;3.10;;
76196;SDS011;64974;53.144;17.962;2023-04-25T00:58:07;5.95;;;3.50;;
76196;SDS011;64974;53.144;17.962;2023-04-25T01:00:32;5.93;;;3.92;;
76196;SDS011;64974;53.144;17.962;2023-04-25T01:02:57;5.80;;;3.78;;
76196;SDS011;64974;53.144;17.962;2023-04-25T01:05:23;5.85;;;3.25;;
76196;SDS011;64974;53.144;17.962;2023-04-25T01:07:48;5.65;;;3.70;;
76196;SDS011;64974;53.144;17.962;2023-04-25T01:10:14;5.05;;;2.80;;
76196;SDS011;64974;53.144;17.962;2023-04-25T01:12:40;5.45;;;3.65;;
76196;SDS011;64974;53.144;17.962;2023-04-25T01:15:05;4.88;;;3.25;;
76196;SDS011;64974;53.144;17.962;2023-04-25T01:17:31;8.45;;;4.10;;
76196;SDS011;64974;53.144;17.962;2023-04-25T01:19:57;5.38;;;3.20;;
76196;SDS011;64974;53.144;17.962;2023-04-25T01:22:22;6.57;;;3.65;;
76196;SDS011;64974;53.144;17.962;2023-04-25T01:24:47;5.75;;;3.33;;
76196;SDS011;64974;53.144;17.962;2023-04-25T01:27:13;7.22;;;3.40;;
76196;SDS011;64974;53.144;17.962;2023-04-25T01:29:39;5.93;;;3.70;;
76196;SDS011;64974;53.144;17.962;2023-04-25T01:32:04;5.70;;;3.67;;
76196;SDS011;64974;53.144;17.962;2023-04-25T01:36:56;5.37;;;3.50;;
76196;SDS011;64974;53.144;17.962;2023-04-25T01:39:21;5.10;;;3.13;;
76196;SDS011;64974;53.144;17.962;2023-04-25T01:41:47;6.38;;;3.30;;
76196;SDS011;64974;53.144;17.962;2023-04-25T01:44:12;4.78;;;3.45;;
76196;SDS011;64974;53.144;17.962;2023-04-25T01:46:38;6.22;;;4.00;;
76196;SDS011;64974;53.144;17.962;2023-04-25T01:49:04;6.35;;;3.92;;
76196;SDS011;64974;53.144;17.962;2023-04-25T01:51:29;5.78;;;3.78;;
76196;SDS011;64974;53.144;17.962;2023-04-25T01:53:55;7.25;;;3.95;;
76196;SDS011;64974;53.144;17.962;2023-04-25T01:56:21;6.20;;;4.03;;
76196;SDS011;64974;53.144;17.962;2023-04-25T01:58:46;6.40;;;3.90;;
76196;SDS011;64974;53.144;17.962;2023-04-25T02:01:12;5.30;;;3.28;;
76196;SDS011;64974;53.144;17.962;2023-04-25T02:03:37;6.47;;;3.50;;
76196;SDS011;64974;53.144;17.962;2023-04-25T02:06:03;7.05;;;3.55;;
76196;SDS011;64974;53.144;17.962;2023-04-25T02:08:28;6.25;;;4.10;;
76196;SDS011;64974;53.144;17.962;2023-04-25T02:10:53;6.22;;;3.50;;
76196;SDS011;64974;53.144;17.962;2023-04-25T02:13:19;5.40;;;3.23;;
76196;SDS011;64974;53.144;17.962;2023-04-25T02:15:44;6.35;;;3.50;;
76196;SDS011;64974;53.144;17.962;2023-04-25T02:18:09;5.60;;;3.50;;
76196;SDS011;64974;53.144;17.962;2023-04-25T02:23:01;4.80;;;2.70;;
76196;SDS011;64974;53.144;17.962;2023-04-25T02:25:27;5.00;;;3.08;;
76196;SDS011;64974;53.144;17.962;2023-04-25T02:27:52;4.88;;;3.08;;
76196;SDS011;64974;53.144;17.962;2023-04-25T02:30:17;5.53;;;3.10;;
76196;SDS011;64974;53.144;17.962;2023-04-25T02:32:43;5.90;;;3.58;;
76196;SDS011;64974;53.144;17.962;2023-04-25T02:35:08;5.43;;;3.27;;
76196;SDS011;64974;53.144;17.962;2023-04-25T02:37:34;4.53;;;2.53;;
76196;SDS011;64974;53.144;17.962;2023-04-25T02:40:00;5.22;;;2.72;;
76196;SDS011;64974;53.144;17.962;2023-04-25T02:42:26;4.75;;;2.60;;
76196;SDS011;64974;53.144;17.962;2023-04-25T02:44:51;4.18;;;2.60;;
76196;SDS011;64974;53.144;17.962;2023-04-25T02:47:17;3.57;;;2.50;;
76196;SDS011;64974;53.144;17.962;2023-04-25T02:49:42;4.77;;;2.93;;
76196;SDS011;64974;53.144;17.962;2023-04-25T02:52:07;4.67;;;2.50;;
76196;SDS011;64974;53.144;17.962;2023-04-25T02:54:33;4.88;;;1.83;;
76196;SDS011;64974;53.144;17.962;2023-04-25T02:56:59;3.40;;;2.03;;
76196;SDS011;64974;53.144;17.962;2023-04-25T02:59:25;4.28;;;2.10;;
76196;SDS011;64974;53.144;17.962;2023-04-25T03:01:50;3.58;;;2.03;;
76196;SDS011;64974;53.144;17.962;2023-04-25T03:04:15;3.95;;;2.47;;
76196;SDS011;64974;53.144;17.962;2023-04-25T03:06:41;4.05;;;2.53;;
76196;SDS011;64974;53.144;17.962;2023-04-25T03:09:06;3.80;;;2.25;;
76196;SDS011;64974;53.144;17.962;2023-04-25T03:11:32;5.00;;;2.20;;
76196;SDS011;64974;53.144;17.962;2023-04-25T03:13:57;2.97;;;1.80;;
76196;SDS011;64974;53.144;17.962;2023-04-25T03:16:23;3.37;;;1.87;;
76196;SDS011;64974;53.144;17.962;2023-04-25T03:18:48;3.30;;;1.65;;
76196;SDS011;64974;53.144;17.962;2023-04-25T03:21:15;4.25;;;2.10;;
76196;SDS011;64974;53.144;17.962;2023-04-25T03:23:40;3.35;;;1.85;;
76196;SDS011;64974;53.144;17.962;2023-04-25T03:26:06;3.80;;;1.52;;
76196;SDS011;64974;53.144;17.962;2023-04-25T03:28:31;3.35;;;1.88;;
76196;SDS011;64974;53.144;17.962;2023-04-25T03:30:56;2.60;;;1.50;;
76196;SDS011;64974;53.144;17.962;2023-04-25T03:33:22;3.20;;;1.70;;
76196;SDS011;64974;53.144;17.962;2023-04-25T03:35:47;4.30;;;2.00;;
76196;SDS011;64974;53.144;17.962;2023-04-25T03:38:12;4.13;;;1.60;;
76196;SDS011;64974;53.144;17.962;2023-04-25T03:40:38;2.97;;;1.65;;
76196;SDS011;64974;53.144;17.962;2023-04-25T03:43:03;3.00;;;1.85;;
76196;SDS011;64974;53.144;17.962;2023-04-25T03:45:28;2.50;;;1.60;;
76196;SDS011;64974;53.144;17.962;2023-04-25T03:47:54;3.17;;;1.75;;
76196;SDS011;64974;53.144;17.962;2023-04-25T03:50:19;3.73;;;1.60;;
76196;SDS011;64974;53.144;17.962;2023-04-25T03:52:44;2.60;;;1.40;;
76196;SDS011;64974;53.144;17.962;2023-04-25T03:55:10;4.80;;;2.47;;
76196;SDS011;64974;53.144;17.962;2023-04-25T03:57:35;3.95;;;1.73;;
76196;SDS011;64974;53.144;17.962;2023-04-25T04:00:00;4.70;;;2.05;;
76196;SDS011;64974;53.144;17.962;2023-04-25T04:02:26;4.50;;;1.67;;
76196;SDS011;64974;53.144;17.962;2023-04-25T04:04:52;4.07;;;1.60;;
76196;SDS011;64974;53.144;17.962;2023-04-25T04:07:17;3.47;;;1.60;;
76196;SDS011;64974;53.144;17.962;2023-04-25T04:09:42;4.68;;;1.90;;
76196;SDS011;64974;53.144;17.962;2023-04-25T04:12:08;3.75;;;1.63;;
76196;SDS011;64974;53.144;17.962;2023-04-25T04:14:33;2.78;;;1.38;;
76196;SDS011;64974;53.144;17.962;2023-04-25T04:16:58;3.10;;;1.53;;
76196;SDS011;64974;53.144;17.962;2023-04-25T04:19:23;3.95;;;1.98;;
76196;SDS011;64974;53.144;17.962;2023-04-25T04:21:49;3.33;;;1.88;;
76196;SDS011;64974;53.144;17.962;2023-04-25T04:24:14;3.92;;;1.67;;
76196;SDS011;64974;53.144;17.962;2023-04-25T04:26:41;2.92;;;1.60;;
76196;SDS011;64974;53.144;17.962;2023-04-25T04:29:10;2.85;;;1.35;;
76196;SDS011;64974;53.144;17.962;2023-04-25T04:31:35;3.53;;;1.85;;
76196;SDS011;64974;53.144;17.962;2023-04-25T04:34:01;4.00;;;2.08;;
76196;SDS011;64974;53.144;17.962;2023-04-25T04:36:26;2.67;;;1.33;;
76196;SDS011;64974;53.144;17.962;2023-04-25T04:38:52;3.30;;;1.40;;
76196;SDS011;64974;53.144;17.962;2023-04-25T04:41:18;3.15;;;1.70;;
76196;SDS011;64974;53.144;17.962;2023-04-25T04:43:45;4.18;;;1.90;;
76196;SDS011;64974;53.144;17.962;2023-04-25T04:46:11;2.80;;;1.40;;
76196;SDS011;64974;53.144;17.962;2023-04-25T04:48:37;2.70;;;1.55;;
76196;SDS011;64974;53.144;17.962;2023-04-25T04:51:05;3.25;;;1.58;;
76196;SDS011;64974;53.144;17.962;2023-04-25T04:53:30;3.53;;;1.73;;
76196;SDS011;64974;53.144;17.962;2023-04-25T04:55:55;4.50;;;1.92;;
76196;SDS011;64974;53.144;17.962;2023-04-25T04:58:21;4.50;;;1.90;;
76196;SDS011;64974;53.144;17.962;2023-04-25T05:00:46;4.90;;;2.08;;
76196;SDS011;64974;53.144;17.962;2023-04-25T05:03:12;4.20;;;1.48;;
76196;SDS011;64974;53.144;17.962;2023-04-25T05:05:38;2.88;;;1.85;;
76196;SDS011;64974;53.144;17.962;2023-04-25T05:08:05;3.60;;;2.13;;
76196;SDS011;64974;53.144;17.962;2023-04-25T05:10:31;4.82;;;2.47;;
76196;SDS011;64974;53.144;17.962;2023-04-25T05:12:57;4.82;;;2.13;;
76196;SDS011;64974;53.144;17.962;2023-04-25T05:15:22;4.53;;;2.45;;
76196;SDS011;64974;53.144;17.962;2023-04-25T05:17:48;6.10;;;3.38;;
76196;SDS011;64974;53.144;17.962;2023-04-25T05:20:13;3.77;;;2.20;;
76196;SDS011;64974;53.144;17.962;2023-04-25T05:22:39;3.80;;;2.22;;
76196;SDS011;64974;53.144;17.962;2023-04-25T05:25:06;3.83;;;1.73;;
76196;SDS011;64974;53.144;17.962;2023-04-25T05:27:32;5.05;;;2.10;;
76196;SDS011;64974;53.144;17.962;2023-04-25T05:29:57;4.65;;;2.28;;
76196;SDS011;64974;53.144;17.962;2023-04-25T05:32:23;3.17;;;1.77;;
76196;SDS011;64974;53.144;17.962;2023-04-25T05:34:50;5.00;;;2.28;;
76196;SDS011;64974;53.144;17.962;2023-04-25T05:37:15;8.85;;;2.95;;
76196;SDS011;64974;53.144;17.962;2023-04-25T05:39:40;5.18;;;2.55;;
76196;SDS011;64974;53.144;17.962;2023-04-25T05:42:05;6.67;;;2.93;;
76196;SDS011;64974;53.144;17.962;2023-04-25T05:44:31;7.85;;;2.83;;
76196;SDS011;64974;53.144;17.962;2023-04-25T05:46:56;7.88;;;3.00;;
76196;SDS011;64974;53.144;17.962;2023-04-25T05:49:21;5.20;;;2.63;;
76196;SDS011;64974;53.144;17.962;2023-04-25T05:51:47;4.70;;;2.88;;
76196;SDS011;64974;53.144;17.962;2023-04-25T05:54:12;5.03;;;2.40;;
76196;SDS011;64974;53.144;17.962;2023-04-25T05:56:37;11.38;;;1.85;;
76196;SDS011;64974;53.144;17.962;2023-04-25T05:59:03;3.33;;;1.60;;
76196;SDS011;64974;53.144;17.962;2023-04-25T06:01:28;8.47;;;2.80;;
76196;SDS011;64974;53.144;17.962;2023-04-25T06:03:53;6.00;;;2.53;;
76196;SDS011;64974;53.144;17.962;2023-04-25T06:06:19;3.53;;;1.80;;
76196;SDS011;64974;53.144;17.962;2023-04-25T06:08:44;3.17;;;1.92;;
76196;SDS011;64974;53.144;17.962;2023-04-25T06:11:10;5.68;;;2.10;;
76196;SDS011;64974;53.144;17.962;2023-04-25T06:13:35;5.38;;;2.67;;
76196;SDS011;64974;53.144;17.962;2023-04-25T06:16:01;6.30;;;2.47;;
76196;SDS011;64974;53.144;17.962;2023-04-25T06:18:26;4.50;;;2.17;;
76196;SDS011;64974;53.144;17.962;2023-04-25T06:20:51;3.42;;;1.75;;
76196;SDS011;64974;53.144;17.962;2023-04-25T06:23:16;8.37;;;2.20;;
76196;SDS011;64974;53.144;17.962;2023-04-25T06:25:42;5.40;;;2.30;;
76196;SDS011;64974;53.144;17.962;2023-04-25T06:28:07;7.73;;;3.57;;
76196;SDS011;64974;53.144;17.962;2023-04-25T06:30:33;4.30;;;2.22;;
76196;SDS011;64974;53.144;17.962;2023-04-25T06:32:58;9.73;;;4.07;;
76196;SDS011;64974;53.144;17.962;2023-04-25T06:35:23;7.90;;;2.60;;
76196;SDS011;64974;53.144;17.962;2023-04-25T06:37:49;6.45;;;2.88;;
76196;SDS011;64974;53.144;17.962;2023-04-25T06:40:14;8.13;;;3.10;;
76196;SDS011;64974;53.144;17.962;2023-04-25T06:42:39;6.55;;;3.55;;
76196;SDS011;64974;53.144;17.962;2023-04-25T06:45:05;5.15;;;2.78;;
76196;SDS011;64974;53.144;17.962;2023-04-25T06:47:31;4.75;;;2.95;;
76196;SDS011;64974;53.144;17.962;2023-04-25T06:49:56;6.38;;;2.78;;
76196;SDS011;64974;53.144;17.962;2023-04-25T06:52:21;7.93;;;2.60;;
76196;SDS011;64974;53.144;17.962;2023-04-25T06:54:47;6.57;;;3.03;;
76196;SDS011;64974;53.144;17.962;2023-04-25T06:57:12;6.10;;;3.50;;
76196;SDS011;64974;53.144;17.962;2023-04-25T06:59:38;5.75;;;3.28;;
76196;SDS011;64974;53.144;17.962;2023-04-25T07:02:03;5.45;;;3.20;;
76196;SDS011;64974;53.144;17.962;2023-04-25T07:04:29;4.68;;;2.65;;
76196;SDS011;64974;53.144;17.962;2023-04-25T07:06:55;4.45;;;2.40;;
76196;SDS011;64974;53.144;17.962;2023-04-25T07:09:20;4.75;;;2.55;;
76196;SDS011;64974;53.144;17.962;2023-04-25T07:11:46;5.43;;;3.25;;
76196;SDS011;64974;53.144;17.962;2023-04-25T07:14:11;6.97;;;2.63;;
76196;SDS011;64974;53.144;17.962;2023-04-25T07:16:36;5.13;;;3.30;;
76196;SDS011;64974;53.144;17.962;2023-04-25T07:19:01;7.10;;;3.40;;
76196;SDS011;64974;53.144;17.962;2023-04-25T07:21:27;7.32;;;3.03;;
76196;SDS011;64974;53.144;17.962;2023-04-25T07:23:52;5.22;;;2.72;;
76196;SDS011;64974;53.144;17.962;2023-04-25T07:26:18;7.28;;;2.75;;
76196;SDS011;64974;53.144;17.962;2023-04-25T07:28:43;5.63;;;2.75;;
76196;SDS011;64974;53.144;17.962;2023-04-25T07:31:09;5.25;;;2.55;;
76196;SDS011;64974;53.144;17.962;2023-04-25T07:33:34;5.30;;;2.75;;
76196;SDS011;64974;53.144;17.962;2023-04-25T07:35:59;5.50;;;2.33;;
76196;SDS011;64974;53.144;17.962;2023-04-25T07:38:25;7.13;;;2.90;;
76196;SDS011;64974;53.144;17.962;2023-04-25T07:40:51;4.90;;;2.65;;
76196;SDS011;64974;53.144;17.962;2023-04-25T07:43:16;8.30;;;2.78;;
76196;SDS011;64974;53.144;17.962;2023-04-25T07:45:42;5.00;;;2.55;;
76196;SDS011;64974;53.144;17.962;2023-04-25T07:50:33;4.17;;;2.07;;
76196;SDS011;64974;53.144;17.962;2023-04-25T07:52:58;7.20;;;3.30;;
76196;SDS011;64974;53.144;17.962;2023-04-25T07:55:23;7.00;;;3.40;;
76196;SDS011;64974;53.144;17.962;2023-04-25T07:57:49;5.43;;;2.80;;
76196;SDS011;64974;53.144;17.962;2023-04-25T08:00:14;5.65;;;3.45;;
76196;SDS011;64974;53.144;17.962;2023-04-25T08:02:40;5.13;;;3.00;;
76196;SDS011;64974;53.144;17.962;2023-04-25T08:05:05;6.57;;;3.38;;
76196;SDS011;64974;53.144;17.962;2023-04-25T08:07:33;6.20;;;3.58;;
76196;SDS011;64974;53.144;17.962;2023-04-25T08:09:58;5.47;;;3.10;;
76196;SDS011;64974;53.144;17.962;2023-04-25T08:12:24;7.35;;;3.20;;
76196;SDS011;64974;53.144;17.962;2023-04-25T08:14:49;7.07;;;3.53;;
76196;SDS011;64974;53.144;17.962;2023-04-25T08:17:15;6.45;;;4.18;;
76196;SDS011;64974;53.144;17.962;2023-04-25T08:19:40;6.40;;;3.85;;
76196;SDS011;64974;53.144;17.962;2023-04-25T08:22:06;9.65;;;3.20;;
76196;SDS011;64974;53.144;17.962;2023-04-25T08:24:31;5.93;;;3.40;;
76196;SDS011;64974;53.144;17.962;2023-04-25T08:26:57;6.05;;;3.22;;
76196;SDS011;64974;53.144;17.962;2023-04-25T08:29:23;7.30;;;3.20;;
76196;SDS011;64974;53.144;17.962;2023-04-25T08:31:50;6.60;;;3.65;;
76196;SDS011;64974;53.144;17.962;2023-04-25T08:34:17;7.25;;;3.33;;
76196;SDS011;64974;53.144;17.962;2023-04-25T08:36:43;6.13;;;3.72;;
76196;SDS011;64974;53.144;17.962;2023-04-25T08:39:08;6.85;;;3.30;;
76196;SDS011;64974;53.144;17.962;2023-04-25T08:41:34;4.95;;;3.05;;
76196;SDS011;64974;53.144;17.962;2023-04-25T08:44:00;7.03;;;2.88;;
76196;SDS011;64974;53.144;17.962;2023-04-25T08:46:28;7.13;;;3.35;;
76196;SDS011;64974;53.144;17.962;2023-04-25T08:48:53;6.15;;;3.10;;
76196;SDS011;64974;53.144;17.962;2023-04-25T08:51:25;6.07;;;3.65;;
76196;SDS011;64974;53.144;17.962;2023-04-25T08:53:53;7.57;;;3.30;;
76196;SDS011;64974;53.144;17.962;2023-04-25T08:56:18;6.93;;;3.42;;
76196;SDS011;64974;53.144;17.962;2023-04-25T08:58:50;4.53;;;2.90;;
76196;SDS011;64974;53.144;17.962;2023-04-25T09:01:15;5.45;;;3.00;;
76196;SDS011;64974;53.144;17.962;2023-04-25T09:03:41;7.00;;;3.17;;
76196;SDS011;64974;53.144;17.962;2023-04-25T09:06:07;5.97;;;3.65;;
76196;SDS011;64974;53.144;17.962;2023-04-25T09:08:35;6.28;;;3.78;;
76196;SDS011;64974;53.144;17.962;2023-04-25T09:11:01;5.97;;;3.50;;
76196;SDS011;64974;53.144;17.962;2023-04-25T09:13:28;6.35;;;2.90;;
76196;SDS011;64974;53.144;17.962;2023-04-25T09:15:55;6.00;;;3.22;;
76196;SDS011;64974;53.144;17.962;2023-04-25T09:18:31;8.93;;;3.30;;
76196;SDS011;64974;53.144;17.962;2023-04-25T09:21:04;7.43;;;3.33;;
76196;SDS011;64974;53.144;17.962;2023-04-25T09:23:41;8.82;;;3.60;;
76196;SDS011;64974;53.144;17.962;2023-04-25T09:26:10;5.50;;;2.88;;
76196;SDS011;64974;53.144;17.962;2023-04-25T09:31:09;4.97;;;2.70;;
76196;SDS011;64974;53.144;17.962;2023-04-25T09:33:35;5.68;;;3.80;;
76196;SDS011;64974;53.144;17.962;2023-04-25T09:36:10;3.88;;;2.67;;
76196;SDS011;64974;53.144;17.962;2023-04-25T09:38:43;4.38;;;2.60;;
76196;SDS011;64974;53.144;17.962;2023-04-25T09:41:09;4.43;;;2.70;;
76196;SDS011;64974;53.144;17.962;2023-04-25T09:43:35;5.93;;;2.70;;
76196;SDS011;64974;53.144;17.962;2023-04-25T09:46:01;4.93;;;2.63;;
76196;SDS011;64974;53.144;17.962;2023-04-25T09:48:27;4.40;;;2.47;;
76196;SDS011;64974;53.144;17.962;2023-04-25T09:51:06;5.65;;;2.78;;
76196;SDS011;64974;53.144;17.962;2023-04-25T09:53:33;4.78;;;2.58;;
76196;SDS011;64974;53.144;17.962;2023-04-25T09:56:00;6.43;;;3.28;;
76196;SDS011;64974;53.144;17.962;2023-04-25T09:58:29;4.68;;;2.92;;
76196;SDS011;64974;53.144;17.962;2023-04-25T10:00:55;4.25;;;2.65;;
76196;SDS011;64974;53.144;17.962;2023-04-25T10:03:23;4.28;;;2.50;;
76196;SDS011;64974;53.144;17.962;2023-04-25T10:05:50;4.20;;;2.58;;
76196;SDS011;64974;53.144;17.962;2023-04-25T10:08:17;3.97;;;2.15;;
76196;SDS011;64974;53.144;17.962;2023-04-25T10:10:42;4.80;;;2.53;;
76196;SDS011;64974;53.144;17.962;2023-04-25T10:13:08;4.80;;;2.75;;
76196;SDS011;64974;53.144;17.962;2023-04-25T10:15:36;7.00;;;3.08;;
76196;SDS011;64974;53.144;17.962;2023-04-25T10:18:02;4.90;;;2.50;;
76196;SDS011;64974;53.144;17.962;2023-04-25T10:20:28;5.13;;;3.40;;
76196;SDS011;64974;53.144;17.962;2023-04-25T10:22:54;6.25;;;3.42;;
76196;SDS011;64974;53.144;17.962;2023-04-25T10:25:21;5.32;;;2.70;;
76196;SDS011;64974;53.144;17.962;2023-04-25T10:27:49;4.45;;;3.10;;
76196;SDS011;64974;53.144;17.962;2023-04-25T10:30:16;4.72;;;2.60;;
76196;SDS011;64974;53.144;17.962;2023-04-25T10:32:41;5.33;;;2.63;;
76196;SDS011;64974;53.144;17.962;2023-04-25T10:37:36;4.22;;;2.60;;
76196;SDS011;64974;53.144;17.962;2023-04-25T10:40:07;6.00;;;2.55;;
76196;SDS011;64974;53.144;17.962;2023-04-25T10:42:34;4.47;;;2.80;;
76196;SDS011;64974;53.144;17.962;2023-04-25T10:45:06;5.00;;;2.78;;
76196;SDS011;64974;53.144;17.962;2023-04-25T10:47:35;5.05;;;2.67;;
76196;SDS011;64974;53.144;17.962;2023-04-25T10:50:05;4.00;;;2.35;;
76196;SDS011;64974;53.144;17.962;2023-04-25T10:52:32;5.57;;;2.92;;
76196;SDS011;64974;53.144;17.962;2023-04-25T10:54:58;4.63;;;2.55;;
76196;SDS011;64974;53.144;17.962;2023-04-25T10:57:36;4.40;;;2.90;;
76196;SDS011;64974;53.144;17.962;2023-04-25T11:00:06;5.43;;;2.90;;
76196;SDS011;64974;53.144;17.962;2023-04-25T11:02:42;4.53;;;2.50;;
76196;SDS011;64974;53.144;17.962;2023-04-25T11:05:09;6.05;;;3.08;;
76196;SDS011;64974;53.144;17.962;2023-04-25T11:12:39;9.37;;;3.73;;
76196;SDS011;64974;53.144;17.962;2023-04-25T11:15:05;7.05;;;3.50;;
76196;SDS011;64974;53.144;17.962;2023-04-25T11:17:32;6.25;;;3.00;;
76196;SDS011;64974;53.144;17.962;2023-04-25T11:19:58;5.22;;;2.97;;
76196;SDS011;64974;53.144;17.962;2023-04-25T11:22:23;8.85;;;4.30;;
76196;SDS011;64974;53.144;17.962;2023-04-25T11:24:49;11.82;;;4.20;;
76196;SDS011;64974;53.144;17.962;2023-04-25T11:27:15;7.53;;;4.30;;
76196;SDS011;64974;53.144;17.962;2023-04-25T11:29:40;7.97;;;3.55;;
76196;SDS011;64974;53.144;17.962;2023-04-25T11:32:06;6.18;;;2.80;;
76196;SDS011;64974;53.144;17.962;2023-04-25T11:34:32;6.18;;;3.17;;
76196;SDS011;64974;53.144;17.962;2023-04-25T11:36:58;13.02;;;5.78;;
76196;SDS011;64974;53.144;17.962;2023-04-25T11:39:25;12.52;;;4.88;;
76196;SDS011;64974;53.144;17.962;2023-04-25T11:41:51;6.57;;;3.70;;
76196;SDS011;64974;53.144;17.962;2023-04-25T11:44:18;6.10;;;2.55;;
76196;SDS011;64974;53.144;17.962;2023-04-25T11:49:09;28.27;;;10.52;;
76196;SDS011;64974;53.144;17.962;2023-04-25T11:51:41;23.58;;;11.32;;
76196;SDS011;64974;53.144;17.962;2023-04-25T11:54:06;13.70;;;6.35;;
76196;SDS011;64974;53.144;17.962;2023-04-25T11:56:32;5.72;;;3.35;;
76196;SDS011;64974;53.144;17.962;2023-04-25T11:59:02;5.00;;;2.75;;
76196;SDS011;64974;53.144;17.962;2023-04-25T12:01:29;5.15;;;2.88;;
76196;SDS011;64974;53.144;17.962;2023-04-25T12:06:20;7.25;;;3.45;;
76196;SDS011;64974;53.144;17.962;2023-04-25T12:09:04;6.05;;;3.05;;
76196;SDS011;64974;53.144;17.962;2023-04-25T12:11:32;4.57;;;3.10;;
76196;SDS011;64974;53.144;17.962;2023-04-25T12:14:01;4.50;;;2.50;;
76196;SDS011;64974;53.144;17.962;2023-04-25T12:16:28;3.72;;;2.55;;
76196;SDS011;64974;53.144;17.962;2023-04-25T12:18:55;5.90;;;3.22;;
76196;SDS011;64974;53.144;17.962;2023-04-25T12:21:21;4.70;;;2.58;;
76196;SDS011;64974;53.144;17.962;2023-04-25T12:23:47;5.78;;;2.92;;
76196;SDS011;64974;53.144;17.962;2023-04-25T12:26:12;5.85;;;2.63;;
76196;SDS011;64974;53.144;17.962;2023-04-25T12:28:37;4.85;;;2.53;;
76196;SDS011;64974;53.144;17.962;2023-04-25T12:31:04;4.75;;;2.50;;
76196;SDS011;64974;53.144;17.962;2023-04-25T12:33:31;5.20;;;2.30;;
76196;SDS011;64974;53.144;17.962;2023-04-25T12:35:58;4.43;;;2.58;;
76196;SDS011;64974;53.144;17.962;2023-04-25T12:40:53;5.30;;;3.33;;
76196;SDS011;64974;53.144;17.962;2023-04-25T12:43:19;3.97;;;2.53;;
76196;SDS011;64974;53.144;17.962;2023-04-25T12:45:47;5.07;;;3.15;;
76196;SDS011;64974;53.144;17.962;2023-04-25T12:48:16;5.63;;;3.17;;
76196;SDS011;64974;53.144;17.962;2023-04-25T12:50:42;8.20;;;3.72;;
76196;SDS011;64974;53.144;17.962;2023-04-25T12:53:07;15.65;;;4.10;;
76196;SDS011;64974;53.144;17.962;2023-04-25T12:55:32;5.65;;;3.30;;
76196;SDS011;64974;53.144;17.962;2023-04-25T12:57:58;7.28;;;3.10;;
76196;SDS011;64974;53.144;17.962;2023-04-25T13:00:23;5.93;;;2.40;;
76196;SDS011;64974;53.144;17.962;2023-04-25T13:02:49;4.10;;;2.60;;
76196;SDS011;64974;53.144;17.962;2023-04-25T13:05:15;4.75;;;2.75;;
76196;SDS011;64974;53.144;17.962;2023-04-25T13:07:40;4.32;;;2.72;;
76196;SDS011;64974;53.144;17.962;2023-04-25T13:10:06;4.22;;;2.13;;
76196;SDS011;64974;53.144;17.962;2023-04-25T13:12:32;4.30;;;2.38;;
76196;SDS011;64974;53.144;17.962;2023-04-25T13:14:57;4.88;;;2.42;;
76196;SDS011;64974;53.144;17.962;2023-04-25T13:17:23;5.72;;;2.40;;
76196;SDS011;64974;53.144;17.962;2023-04-25T13:19:48;4.00;;;2.87;;
76196;SDS011;64974;53.144;17.962;2023-04-25T13:22:13;4.07;;;2.87;;
76196;SDS011;64974;53.144;17.962;2023-04-25T13:24:40;3.40;;;2.10;;
76196;SDS011;64974;53.144;17.962;2023-04-25T13:27:05;5.90;;;2.95;;
76196;SDS011;64974;53.144;17.962;2023-04-25T13:29:31;6.45;;;2.92;;
76196;SDS011;64974;53.144;17.962;2023-04-25T13:31:56;5.22;;;2.92;;
76196;SDS011;64974;53.144;17.962;2023-04-25T13:34:22;4.68;;;2.65;;
76196;SDS011;64974;53.144;17.962;2023-04-25T13:36:47;4.75;;;2.70;;
76196;SDS011;64974;53.144;17.962;2023-04-25T13:39:12;6.53;;;2.70;;
76196;SDS011;64974;53.144;17.962;2023-04-25T13:41:38;4.30;;;2.25;;
76196;SDS011;64974;53.144;17.962;2023-04-25T13:44:03;6.15;;;2.63;;
76196;SDS011;64974;53.144;17.962;2023-04-25T13:46:29;3.83;;;2.40;;
76196;SDS011;64974;53.144;17.962;2023-04-25T13:48:54;5.70;;;2.50;;
76196;SDS011;64974;53.144;17.962;2023-04-25T13:51:19;6.13;;;3.10;;
76196;SDS011;64974;53.144;17.962;2023-04-25T13:53:45;6.10;;;2.85;;
76196;SDS011;64974;53.144;17.962;2023-04-25T13:56:11;4.82;;;2.42;;
76196;SDS011;64974;53.144;17.962;2023-04-25T13:58:36;4.10;;;2.53;;
76196;SDS011;64974;53.144;17.962;2023-04-25T14:01:02;3.90;;;2.15;;
76196;SDS011;64974;53.144;17.962;2023-04-25T14:03:28;5.47;;;2.55;;
76196;SDS011;64974;53.144;17.962;2023-04-25T14:05:53;4.57;;;2.42;;
76196;SDS011;64974;53.144;17.962;2023-04-25T14:08:19;6.40;;;2.97;;
76196;SDS011;64974;53.144;17.962;2023-04-25T14:10:44;4.28;;;2.35;;
76196;SDS011;64974;53.144;17.962;2023-04-25T14:13:10;4.13;;;2.43;;
76196;SDS011;64974;53.144;17.962;2023-04-25T14:15:36;3.60;;;2.20;;
76196;SDS011;64974;53.144;17.962;2023-04-25T14:18:01;5.70;;;1.95;;
76196;SDS011;64974;53.144;17.962;2023-04-25T14:20:27;4.10;;;2.10;;
76196;SDS011;64974;53.144;17.962;2023-04-25T14:22:52;4.05;;;2.17;;
76196;SDS011;64974;53.144;17.962;2023-04-25T14:25:19;3.78;;;2.50;;
76196;SDS011;64974;53.144;17.962;2023-04-25T14:27:44;5.10;;;2.25;;
76196;SDS011;64974;53.144;17.962;2023-04-25T14:30:14;4.20;;;1.98;;
76196;SDS011;64974;53.144;17.962;2023-04-25T14:32:40;3.97;;;1.83;;
76196;SDS011;64974;53.144;17.962;2023-04-25T14:35:05;3.97;;;2.10;;
76196;SDS011;64974;53.144;17.962;2023-04-25T14:39:57;3.90;;;2.10;;
76196;SDS011;64974;53.144;17.962;2023-04-25T14:42:22;4.70;;;2.22;;
76196;SDS011;64974;53.144;17.962;2023-04-25T14:44:48;4.30;;;2.25;;
76196;SDS011;64974;53.144;17.962;2023-04-25T14:47:13;5.30;;;2.10;;
76196;SDS011;64974;53.144;17.962;2023-04-25T14:49:38;6.00;;;2.83;;
76196;SDS011;64974;53.144;17.962;2023-04-25T14:52:04;3.65;;;2.15;;
76196;SDS011;64974;53.144;17.962;2023-04-25T14:54:29;8.70;;;4.22;;
76196;SDS011;64974;53.144;17.962;2023-04-25T14:56:55;9.02;;;3.45;;
76196;SDS011;64974;53.144;17.962;2023-04-25T14:59:21;5.50;;;2.88;;